createdAt,value
2022-11-07T00:01:38.984Z,24.13
2022-11-07T00:04:24.636Z,17.55
2022-11-07T00:07:10.089Z,21.02
2022-11-07T00:09:55.596Z,21.80
2022-11-07T00:12:41.664Z,23.75
2022-11-07T00:15:27.005Z,19.67
2022-11-07T00:18:12.540Z,17.88
2022-11-07T00:21:06.310Z,25.25
2022-11-07T00:23:51.729Z,20.33
2022-11-07T00:26:37.490Z,19.65
2022-11-07T00:29:23.361Z,28.30
2022-11-07T00:32:08.711Z,20.15
2022-11-07T00:34:54.110Z,26.80
2022-11-07T00:37:39.611Z,23.85
2022-11-07T00:40:24.913Z,19.55
2022-11-07T00:43:10.432Z,19.15
2022-11-07T00:45:56.285Z,17.33
2022-11-07T00:48:42.169Z,20.08
2022-11-07T00:51:28.917Z,21.10
2022-11-07T00:54:14.379Z,25.42
2022-11-07T00:57:00.327Z,24.67
2022-11-07T00:59:45.897Z,18.98
2022-11-07T01:02:31.556Z,17.98
2022-11-07T01:05:17.385Z,19.73
2022-11-07T01:08:02.889Z,24.33
2022-11-07T01:10:48.366Z,21.58
2022-11-07T01:13:34.558Z,22.73
2022-11-07T01:16:20.121Z,24.00
2022-11-07T01:19:06.289Z,18.13
2022-11-07T01:21:52.013Z,25.15
2022-11-07T01:24:37.767Z,23.10
2022-11-07T01:27:23.457Z,24.40
2022-11-07T01:30:10.621Z,18.52
2022-11-07T01:32:55.837Z,19.52
2022-11-07T01:35:41.389Z,20.05
2022-11-07T01:38:28.961Z,19.20
2022-11-07T01:41:26.863Z,22.95
2022-11-07T01:44:12.223Z,21.67
2022-11-07T01:47:00.925Z,22.45
2022-11-07T01:49:46.506Z,17.77
2022-11-07T01:52:38.892Z,19.95
2022-11-07T01:55:32.209Z,21.10
2022-11-07T01:58:17.602Z,19.38
2022-11-07T02:01:04.434Z,15.60
2022-11-07T02:03:51.378Z,15.50
2022-11-07T02:06:49.154Z,19.90
2022-11-07T02:09:35.114Z,19.42
2022-11-07T02:12:23.388Z,21.70
2022-11-07T02:15:10.025Z,19.15
2022-11-07T02:17:57.387Z,17.05
2022-11-07T02:20:45.252Z,17.88
2022-11-07T02:23:47.575Z,19.73
2022-11-07T02:26:34.840Z,24.83
2022-11-07T02:29:21.718Z,19.67
2022-11-07T02:32:10.257Z,21.52
2022-11-07T02:35:01.914Z,15.43
2022-11-07T02:37:47.687Z,20.05
2022-11-07T02:40:34.029Z,15.20
2022-11-07T02:43:23.910Z,14.85
2022-11-07T02:46:12.052Z,13.98
2022-11-07T02:49:00.386Z,14.38
2022-11-07T02:51:45.948Z,15.77
2022-11-07T02:54:31.238Z,14.48
2022-11-07T02:57:16.562Z,17.10
2022-11-07T03:00:02.063Z,15.77
2022-11-07T03:02:47.718Z,13.30
2022-11-07T03:05:33.566Z,16.10
2022-11-07T03:08:18.885Z,14.43
2022-11-07T03:11:04.305Z,13.13
2022-11-07T03:13:50.763Z,18.30
2022-11-07T03:16:36.090Z,16.95
2022-11-07T03:19:21.618Z,20.42
2022-11-07T03:22:06.827Z,17.00
2022-11-07T03:24:52.705Z,20.73
2022-11-07T03:27:49.053Z,17.88
2022-11-07T03:30:34.679Z,19.23
2022-11-07T03:33:20.263Z,18.40
2022-11-07T03:36:06.535Z,21.00
2022-11-07T03:38:52.462Z,21.17
2022-11-07T03:41:38.646Z,24.52
2022-11-07T03:44:25.048Z,17.98
2022-11-07T03:47:11.726Z,17.05
2022-11-07T03:49:59.471Z,18.23
2022-11-07T03:52:45.654Z,16.85
2022-11-07T03:55:32.743Z,21.85
2022-11-07T03:58:19.257Z,18.73
2022-11-07T04:01:06.314Z,18.95
2022-11-07T04:03:56.112Z,18.88
2022-11-07T04:06:44.593Z,24.17
2022-11-07T04:09:30.447Z,26.67
2022-11-07T04:12:34.731Z,20.17
2022-11-07T04:15:42.289Z,22.40
2022-11-07T04:18:27.794Z,21.52
2022-11-07T04:21:13.146Z,26.05
2022-11-07T04:24:01.096Z,24.85
2022-11-07T04:27:05.663Z,19.00
2022-11-07T04:29:51.194Z,21.48
2022-11-07T04:32:37.493Z,21.92
2022-11-07T04:35:27.513Z,18.17
2022-11-07T04:38:12.997Z,20.80
2022-11-07T04:40:59.241Z,19.02
2022-11-07T04:43:44.816Z,19.65
2022-11-07T04:46:30.248Z,20.77
2022-11-07T04:49:17.172Z,24.95
2022-11-07T04:52:03.994Z,22.13
2022-11-07T04:54:49.390Z,23.73
2022-11-07T04:57:36.095Z,17.70
2022-11-07T05:00:21.657Z,23.42
2022-11-07T05:03:06.942Z,21.13
2022-11-07T05:05:52.783Z,26.35
2022-11-07T05:08:41.048Z,27.42
2022-11-07T05:11:26.343Z,25.48
2022-11-07T05:14:12.251Z,23.98
2022-11-07T05:16:58.368Z,31.10
2022-11-07T05:19:43.870Z,28.65
2022-11-07T05:22:51.164Z,42.05
2022-11-07T05:25:46.728Z,39.00
2022-11-07T05:28:38.824Z,41.45
2022-11-07T05:31:28.629Z,34.83
2022-11-07T05:34:24.223Z,39.60
2022-11-07T05:37:10.488Z,36.25
2022-11-07T05:39:55.986Z,39.95
2022-11-07T05:42:41.543Z,37.33
2022-11-07T05:45:28.273Z,32.92
2022-11-07T05:48:14.186Z,34.30
2022-11-07T05:50:59.838Z,36.40
2022-11-07T05:53:45.246Z,39.65
2022-11-07T05:56:31.180Z,32.38
2022-11-07T05:59:16.712Z,37.65
2022-11-07T06:02:02.174Z,38.30
2022-11-07T06:04:47.962Z,37.05
2022-11-07T06:07:35.689Z,36.25
2022-11-07T06:10:22.754Z,33.95
2022-11-07T06:13:12.317Z,32.22
2022-11-07T06:15:58.445Z,37.55
2022-11-07T06:18:44.056Z,37.50
2022-11-07T06:21:30.354Z,36.53
2022-11-07T06:24:16.463Z,38.90
2022-11-07T06:27:02.317Z,38.45
2022-11-07T06:29:48.307Z,36.47
2022-11-07T06:32:34.931Z,53.10
2022-11-07T06:35:20.798Z,51.55
2022-11-07T06:38:11.974Z,48.45
2022-11-07T06:41:05.430Z,41.90
2022-11-07T06:43:51.910Z,38.67
2022-11-07T06:46:37.406Z,40.88
2022-11-07T06:49:22.731Z,43.28
2022-11-07T06:52:08.492Z,43.13
2022-11-07T06:54:56.612Z,41.53
2022-11-07T06:57:42.740Z,45.38
2022-11-07T07:00:29.750Z,37.72
2022-11-07T07:03:18.383Z,33.85
2022-11-07T07:06:13.080Z,38.08
2022-11-07T07:08:58.908Z,35.92
2022-11-07T07:11:45.635Z,40.08
2022-11-07T07:14:31.289Z,44.40
2022-11-07T07:17:16.988Z,37.75
2022-11-07T07:20:04.683Z,39.30
2022-11-07T07:22:57.841Z,34.17
2022-11-07T07:25:46.980Z,36.22
2022-11-07T07:28:33.571Z,37.28
2022-11-07T07:31:24.555Z,39.38
2022-11-07T07:34:10.277Z,33.00
2022-11-07T07:36:56.000Z,34.92
2022-11-07T07:39:41.579Z,37.70
2022-11-07T07:42:26.930Z,37.28
2022-11-07T07:45:15.351Z,31.92
2022-11-07T07:48:02.516Z,32.15
2022-11-07T07:50:49.771Z,36.28
2022-11-07T07:53:35.468Z,34.42
2022-11-07T07:56:21.004Z,37.90
2022-11-07T07:59:06.602Z,37.75
2022-11-07T08:01:56.633Z,35.83
2022-11-07T08:04:42.771Z,36.17
2022-11-07T08:07:28.267Z,40.92
2022-11-07T08:10:39.542Z,34.90
2022-11-07T08:13:21.762Z,38.55
2022-11-07T08:16:07.963Z,35.38
2022-11-07T08:18:53.399Z,47.10
2022-11-07T08:21:38.723Z,37.13
2022-11-07T08:24:24.266Z,33.40
2022-11-07T08:27:09.842Z,36.97
2022-11-07T08:29:55.384Z,38.15
2022-11-07T08:32:40.745Z,35.53
2022-11-07T08:35:28.141Z,36.05
2022-11-07T08:38:13.473Z,37.33
2022-11-07T08:40:59.670Z,48.30
2022-11-07T08:43:45.233Z,39.70
2022-11-07T08:46:30.655Z,39.53
2022-11-07T08:49:16.216Z,43.63
2022-11-07T08:52:01.955Z,38.72
2022-11-07T08:54:47.535Z,38.90
2022-11-07T08:57:32.862Z,37.90
2022-11-07T09:00:18.727Z,32.60
2022-11-07T09:06:14.709Z,39.30
2022-11-07T09:09:00.238Z,41.83
2022-11-07T09:11:45.504Z,39.88
2022-11-07T09:14:31.343Z,32.85
2022-11-07T09:17:17.942Z,34.28
2022-11-07T09:20:03.446Z,31.15
2022-11-07T09:22:49.123Z,34.83
2022-11-07T09:25:34.631Z,30.80
2022-11-07T09:28:20.198Z,37.10
2022-11-07T09:31:06.153Z,39.25
2022-11-07T09:33:51.816Z,37.58
2022-11-07T09:36:37.331Z,33.25
2022-11-07T09:39:22.672Z,38.20
2022-11-07T09:42:17.297Z,39.33
2022-11-07T09:45:03.804Z,31.40
2022-11-07T09:48:03.642Z,47.25
2022-11-07T09:50:51.667Z,52.72
2022-11-07T09:53:45.735Z,45.80
2022-11-07T09:56:32.612Z,55.13
2022-11-07T09:59:27.720Z,51.80
2022-11-07T10:02:18.928Z,42.53
2022-11-07T10:05:05.755Z,40.23
2022-11-07T10:08:08.004Z,46.40
2022-11-07T10:11:00.026Z,52.63
2022-11-07T10:13:58.375Z,52.72
2022-11-07T10:16:53.062Z,50.05
2022-11-07T10:20:01.758Z,59.53
2022-11-07T10:23:03.105Z,56.95
2022-11-07T10:26:06.581Z,57.80
2022-11-07T10:29:22.305Z,47.53
2022-11-07T10:32:25.249Z,43.83
2022-11-07T10:35:26.319Z,46.47
2022-11-07T10:38:26.494Z,58.23
2022-11-07T10:41:22.820Z,55.92
2022-11-07T10:47:17.107Z,44.13
2022-11-07T10:50:19.135Z,47.28
2022-11-07T10:53:09.821Z,41.97
2022-11-07T10:55:56.183Z,40.33
2022-11-07T10:58:45.813Z,43.33
2022-11-07T11:01:31.524Z,52.08
2022-11-07T11:04:30.155Z,51.90
2022-11-07T11:07:16.273Z,38.63
2022-11-07T11:10:04.572Z,43.85
2022-11-07T11:12:49.965Z,41.63
2022-11-07T11:18:32.180Z,36.22
2022-11-07T11:21:18.446Z,43.05
2022-11-07T11:24:14.696Z,41.45
2022-11-07T11:27:05.300Z,36.55
2022-11-07T11:30:14.156Z,42.15
2022-11-07T11:33:06.563Z,39.95
2022-11-07T11:35:57.233Z,37.88
2022-11-07T11:38:46.291Z,42.53
2022-11-07T11:41:35.433Z,38.75
2022-11-07T11:44:35.349Z,43.47
2022-11-07T11:47:30.350Z,40.70
2022-11-07T11:50:30.344Z,38.88
2022-11-07T11:53:21.182Z,37.97
2022-11-07T11:56:06.630Z,36.80
2022-11-07T11:59:04.909Z,37.42
2022-11-07T12:02:10.378Z,40.30
2022-11-07T12:05:20.546Z,39.25
2022-11-07T12:08:41.085Z,32.30
2022-11-07T12:11:42.884Z,35.85
2022-11-07T12:14:57.027Z,41.42
2022-11-07T12:17:56.285Z,42.85
2022-11-07T12:21:12.813Z,44.08
2022-11-07T12:24:05.490Z,44.58
2022-11-07T12:27:26.747Z,42.22
2022-11-07T12:30:55.722Z,46.70
2022-11-07T12:34:00.129Z,50.17
2022-11-07T12:37:11.299Z,46.85
2022-11-07T12:40:35.895Z,49.80
2022-11-07T12:43:45.389Z,55.05
2022-11-07T12:46:43.296Z,45.30
2022-11-07T12:49:46.148Z,57.33
2022-11-07T12:52:47.648Z,50.75
2022-11-07T12:55:46.749Z,43.55
2022-11-07T12:58:34.987Z,48.58
2022-11-07T13:01:30.081Z,50.08
2022-11-07T13:04:23.812Z,44.42
2022-11-07T13:07:40.391Z,48.42
2022-11-07T13:10:36.239Z,49.30
2022-11-07T13:13:41.131Z,43.38
2022-11-07T13:16:33.695Z,45.55
2022-11-07T13:19:29.334Z,50.63
2022-11-07T13:22:44.529Z,46.35
2022-11-07T13:25:31.793Z,44.75
2022-11-07T13:28:58.592Z,48.85
2022-11-07T13:31:46.671Z,49.95
2022-11-07T13:35:00.006Z,51.08
2022-11-07T13:37:48.155Z,59.72
2022-11-07T13:40:36.690Z,67.65
2022-11-07T13:43:26.267Z,68.28
2022-11-07T13:46:26.185Z,70.30
2022-11-07T13:49:19.234Z,67.45
2022-11-07T13:52:11.709Z,78.47
2022-11-07T13:55:11.701Z,63.15
2022-11-07T13:58:06.278Z,76.32
2022-11-07T14:00:52.368Z,69.43
2022-11-07T14:03:39.119Z,66.13
2022-11-07T14:06:27.671Z,54.33
2022-11-07T14:09:19.818Z,51.72
2022-11-07T14:12:07.122Z,57.90
2022-11-07T14:14:56.141Z,59.50
2022-11-07T14:17:45.902Z,53.05
2022-11-07T14:20:32.532Z,54.60
2022-11-07T14:23:26.939Z,47.42
2022-11-07T14:26:21.010Z,55.45
2022-11-07T14:29:07.002Z,46.72
2022-11-07T14:32:02.337Z,52.10
2022-11-07T14:34:50.947Z,41.55
2022-11-07T14:37:49.664Z,46.13
2022-11-07T14:40:39.509Z,48.85
2022-11-07T14:43:28.243Z,45.42
2022-11-07T14:46:23.265Z,46.88
2022-11-07T14:49:26.263Z,46.75
2022-11-07T14:52:47.762Z,52.55
2022-11-07T14:55:44.910Z,53.03
2022-11-07T14:58:31.421Z,46.40
2022-11-07T15:01:28.051Z,44.55
2022-11-07T15:04:37.690Z,46.15
2022-11-07T15:07:31.385Z,32.75
2022-11-07T15:10:34.799Z,34.42
2022-11-07T15:13:27.077Z,37.47
2022-11-07T15:16:18.334Z,36.65
2022-11-07T15:19:07.492Z,43.53
2022-11-07T15:22:04.022Z,53.40
2022-11-07T15:24:50.462Z,46.97
2022-11-07T15:27:40.510Z,48.70
2022-11-07T15:30:36.004Z,50.33
2022-11-07T15:33:26.285Z,41.30
2022-11-07T15:36:21.053Z,43.22
2022-11-07T15:39:10.112Z,53.45
2022-11-07T15:41:57.609Z,58.30
2022-11-07T15:44:45.042Z,49.78
2022-11-07T15:47:33.348Z,58.67
2022-11-07T15:50:24.755Z,76.25
2022-11-07T15:53:20.919Z,87.80
2022-11-07T15:56:08.571Z,81.15
2022-11-07T15:58:55.394Z,61.67
2022-11-07T16:01:41.397Z,60.03
2022-11-07T16:04:28.182Z,47.72
2022-11-07T16:07:18.016Z,42.00
2022-11-07T16:10:16.110Z,35.58
2022-11-07T16:13:05.013Z,41.42
2022-11-07T16:16:00.312Z,54.10
2022-11-07T16:18:51.333Z,61.90
2022-11-07T16:21:37.230Z,46.05
2022-11-07T16:24:23.252Z,52.47
2022-11-07T16:27:15.890Z,75.18
2022-11-07T16:30:01.826Z,51.25
2022-11-07T16:32:48.439Z,50.40
2022-11-07T16:35:34.550Z,44.28
2022-11-07T16:38:23.091Z,38.35
2022-11-07T16:41:09.644Z,41.83
2022-11-07T16:43:55.595Z,38.88
2022-11-07T16:46:42.010Z,41.30
2022-11-07T16:49:31.575Z,34.63
2022-11-07T16:52:18.709Z,37.38
2022-11-07T16:55:04.836Z,41.70
2022-11-07T16:57:51.392Z,41.80
2022-11-07T17:00:37.537Z,46.67
2022-11-07T17:03:23.761Z,42.65
2022-11-07T17:06:31.966Z,44.10
2022-11-07T17:09:20.979Z,32.25
2022-11-07T17:12:25.813Z,37.42
2022-11-07T17:15:12.940Z,35.05
2022-11-07T17:18:04.580Z,36.45
2022-11-07T17:23:39.546Z,42.67
2022-11-07T17:26:34.586Z,33.03
2022-11-07T17:29:20.547Z,31.75
2022-11-07T17:32:06.428Z,33.35
2022-11-07T17:35:10.958Z,39.17
2022-11-07T17:37:59.775Z,31.40
2022-11-07T17:40:46.223Z,33.60
2022-11-07T17:43:32.019Z,38.90
2022-11-07T17:46:30.275Z,35.33
2022-11-07T17:49:18.248Z,36.58
2022-11-07T17:52:04.248Z,35.95
2022-11-07T17:54:50.752Z,36.45
2022-11-07T17:57:38.248Z,37.65
2022-11-07T18:00:27.190Z,40.47
2022-11-07T18:03:13.455Z,41.33
2022-11-07T18:05:59.240Z,40.30
2022-11-07T18:08:52.227Z,46.15
2022-11-07T18:11:42.356Z,67.50
2022-11-07T18:14:28.595Z,103.40
2022-11-07T18:17:14.958Z,91.88
2022-11-07T18:20:04.527Z,84.30
2022-11-07T18:22:50.227Z,76.30
2022-11-07T18:25:37.634Z,63.72
2022-11-07T18:28:28.943Z,59.95
2022-11-07T18:31:20.124Z,60.03
2022-11-07T18:34:09.823Z,53.33
2022-11-07T18:36:58.167Z,51.75
2022-11-07T18:39:44.097Z,49.63
2022-11-07T18:42:31.682Z,53.58
2022-11-07T18:45:18.391Z,54.28
2022-11-07T18:48:05.223Z,46.78
2022-11-07T18:50:51.950Z,48.85
2022-11-07T18:53:38.913Z,44.13
2022-11-07T18:56:24.796Z,40.10
2022-11-07T18:59:11.036Z,40.78
2022-11-07T19:01:57.901Z,52.65
2022-11-07T19:04:44.682Z,51.40
2022-11-07T19:07:30.294Z,50.20
2022-11-07T19:10:17.248Z,53.60
2022-11-07T19:13:07.840Z,49.15
2022-11-07T19:15:55.354Z,54.47
2022-11-07T19:18:46.625Z,56.92
2022-11-07T19:21:37.360Z,50.85
2022-11-07T19:24:25.016Z,55.55
2022-11-07T19:27:11.519Z,64.30
2022-11-07T19:29:59.520Z,70.97
2022-11-07T19:32:47.939Z,69.50
2022-11-07T19:35:38.698Z,71.72
2022-11-07T19:38:24.582Z,70.63
2022-11-07T19:41:10.926Z,74.88
2022-11-07T19:43:59.448Z,73.20
2022-11-07T19:46:46.036Z,84.68
2022-11-07T19:49:31.838Z,90.53
2022-11-07T19:52:18.149Z,79.75
2022-11-07T19:55:05.467Z,75.93
2022-11-07T19:57:51.520Z,105.57
2022-11-07T20:00:37.027Z,108.28
2022-11-07T20:03:23.068Z,76.15
2022-11-07T20:06:14.195Z,74.63
2022-11-07T20:09:00.932Z,72.45
2022-11-07T20:11:49.296Z,95.55
2022-11-07T20:14:35.149Z,56.90
2022-11-07T20:17:20.532Z,112.32
2022-11-07T20:20:13.303Z,106.88
2022-11-07T20:23:00.705Z,69.50
2022-11-07T20:25:46.900Z,77.78
2022-11-07T20:28:32.775Z,94.55
2022-11-07T20:31:23.325Z,75.32
2022-11-07T20:34:15.475Z,51.92
2022-11-07T20:37:04.412Z,70.35
2022-11-07T20:39:51.688Z,48.42
2022-11-07T20:42:37.522Z,46.65
2022-11-07T20:45:23.790Z,34.47
2022-11-07T20:48:11.140Z,28.45
2022-11-07T20:50:57.625Z,28.42
2022-11-07T20:53:49.839Z,28.17
2022-11-07T20:56:35.749Z,31.05
2022-11-07T20:59:21.580Z,26.38
2022-11-07T21:02:13.548Z,28.88
2022-11-07T21:08:05.597Z,30.35
2022-11-07T21:10:53.073Z,27.52
2022-11-07T21:13:40.231Z,31.30
2022-11-07T21:16:26.721Z,30.30
2022-11-07T21:19:15.964Z,28.92
2022-11-07T21:22:01.660Z,26.25
2022-11-07T21:24:47.127Z,30.08
2022-11-07T21:27:36.373Z,23.98
2022-11-07T21:30:22.075Z,21.67
2022-11-07T21:33:09.042Z,24.27
2022-11-07T21:35:55.040Z,17.65
2022-11-07T21:38:40.772Z,21.35
2022-11-07T21:41:26.686Z,21.17
2022-11-07T21:44:12.783Z,14.73
2022-11-07T21:46:58.320Z,18.02
2022-11-07T21:49:43.731Z,17.70
2022-11-07T21:52:29.025Z,16.42
2022-11-07T21:55:14.628Z,20.35
2022-11-07T21:57:59.989Z,39.38
2022-11-07T22:00:47.656Z,49.55
2022-11-07T22:04:03.599Z,97.95
2022-11-07T22:06:43.064Z,59.90
2022-11-07T22:09:29.144Z,59.15
2022-11-07T22:12:14.711Z,45.80
2022-11-07T22:15:00.536Z,27.70
2022-11-07T22:17:46.272Z,21.77
2022-11-07T22:20:31.626Z,18.30
2022-11-07T22:23:17.633Z,16.75
2022-11-07T22:26:14.580Z,14.18
2022-11-07T22:29:00.345Z,14.82
2022-11-07T22:31:45.734Z,14.02
2022-11-07T22:34:31.504Z,13.35
2022-11-07T22:37:17.101Z,13.98
2022-11-07T22:40:02.703Z,14.73
2022-11-07T22:42:48.014Z,11.30
2022-11-07T22:45:37.724Z,16.38
2022-11-07T22:48:23.264Z,18.58
2022-11-07T22:51:18.009Z,16.02
2022-11-07T22:54:10.048Z,19.55
2022-11-07T22:56:55.447Z,17.55
2022-11-07T22:59:40.712Z,16.52
2022-11-07T23:02:26.422Z,18.17
2022-11-07T23:05:12.508Z,15.52
2022-11-07T23:07:57.585Z,12.15
2022-11-07T23:10:43.417Z,17.33
2022-11-07T23:13:30.017Z,16.30
2022-11-07T23:16:27.457Z,12.85
2022-11-07T23:19:17.805Z,16.83
2022-11-07T23:22:03.461Z,13.25
2022-11-07T23:24:50.830Z,13.55
2022-11-07T23:27:36.381Z,10.05
2022-11-07T23:30:21.899Z,10.38
2022-11-07T23:33:07.213Z,12.43
2022-11-07T23:35:52.714Z,14.93
2022-11-07T23:38:38.168Z,13.25
2022-11-07T23:41:23.671Z,21.55
2022-11-07T23:44:10.171Z,12.30
2022-11-07T23:47:14.191Z,12.70
2022-11-07T23:50:18.096Z,10.43
2022-11-07T23:53:23.378Z,11.48
2022-11-07T23:56:09.411Z,11.35
2022-11-07T23:59:13.966Z,15.43
